createdAt,value
2023-04-06T00:00:29.846Z,4.70
2023-04-06T00:01:01.702Z,4.70
2023-04-06T00:01:34.577Z,4.70
2023-04-06T00:02:06.542Z,4.70
2023-04-06T00:02:38.465Z,4.60
2023-04-06T00:03:11.600Z,4.60
2023-04-06T00:03:43.613Z,4.60
2023-04-06T00:04:15.709Z,4.60
2023-04-06T00:04:47.606Z,4.60
2023-04-06T00:05:21.175Z,4.60
2023-04-06T00:05:54.459Z,4.50
2023-04-06T00:06:26.625Z,4.50
2023-04-06T00:06:59.470Z,4.50
2023-04-06T00:07:31.354Z,4.40
2023-04-06T00:08:03.406Z,4.40
2023-04-06T00:08:35.446Z,4.40
2023-04-06T00:09:08.486Z,4.30
2023-04-06T00:09:40.531Z,4.30
2023-04-06T00:10:12.477Z,4.30
2023-04-06T00:10:45.496Z,4.30
2023-04-06T00:11:17.683Z,4.20
2023-04-06T00:11:49.572Z,4.20
2023-04-06T00:12:22.437Z,4.30
2023-04-06T00:12:58.182Z,4.30
2023-04-06T00:13:30.170Z,4.30
2023-04-06T00:14:03.029Z,4.30
2023-04-06T00:14:34.921Z,4.30
2023-04-06T00:15:07.931Z,4.30
2023-04-06T00:15:41.042Z,4.40
2023-04-06T00:16:12.960Z,4.40
2023-04-06T00:16:45.006Z,4.40
2023-04-06T00:17:17.902Z,4.40
2023-04-06T00:17:49.938Z,4.40
2023-04-06T00:18:21.833Z,4.40
2023-04-06T00:18:54.671Z,4.40
2023-04-06T00:19:26.524Z,4.50
2023-04-06T00:19:58.429Z,4.50
2023-04-06T00:20:31.307Z,4.50
2023-04-06T00:21:04.860Z,4.50
2023-04-06T00:21:36.757Z,4.50
2023-04-06T00:22:09.368Z,4.50
2023-04-06T00:22:42.428Z,4.50
2023-04-06T00:23:14.294Z,4.50
2023-04-06T00:23:46.199Z,4.40
2023-04-06T00:24:19.009Z,4.40
2023-04-06T00:24:50.975Z,4.30
2023-04-06T00:25:22.955Z,4.40
2023-04-06T00:25:56.445Z,4.30
2023-04-06T00:26:28.348Z,4.30
2023-04-06T00:27:00.791Z,4.30
2023-04-06T00:27:33.670Z,4.30
2023-04-06T00:28:05.664Z,4.20
2023-04-06T00:28:38.015Z,4.20
2023-04-06T00:29:10.053Z,4.20
2023-04-06T00:29:43.110Z,4.20
2023-04-06T00:30:15.483Z,4.20
2023-04-06T00:30:47.333Z,4.20
2023-04-06T00:31:20.343Z,4.30
2023-04-06T00:31:52.229Z,4.30
2023-04-06T00:32:24.247Z,4.40
2023-04-06T00:32:57.261Z,4.30
2023-04-06T00:33:29.234Z,4.40
2023-04-06T00:34:01.143Z,4.40
2023-04-06T00:34:33.097Z,4.40
2023-04-06T00:35:07.004Z,4.40
2023-04-06T00:35:39.763Z,4.40
2023-04-06T00:36:13.146Z,4.40
2023-04-06T00:36:45.261Z,4.40
2023-04-06T00:37:18.091Z,4.50
2023-04-06T00:37:50.017Z,4.50
2023-04-06T00:38:22.430Z,4.50
2023-04-06T00:38:55.927Z,4.50
2023-04-06T00:39:27.770Z,4.50
2023-04-06T00:40:00.706Z,4.50
2023-04-06T00:40:33.693Z,4.50
2023-04-06T00:41:05.780Z,4.50
2023-04-06T00:41:37.697Z,4.50
2023-04-06T00:42:14.481Z,4.50
2023-04-06T00:42:46.376Z,4.50
2023-04-06T00:43:18.273Z,4.40
2023-04-06T00:43:50.139Z,4.40
2023-04-06T00:44:24.103Z,4.30
2023-04-06T00:44:58.230Z,4.30
2023-04-06T00:45:31.127Z,4.20
2023-04-06T00:46:03.091Z,4.20
2023-04-06T00:46:35.406Z,4.20
2023-04-06T00:47:08.438Z,4.30
2023-04-06T00:47:40.578Z,4.30
2023-04-06T00:48:12.608Z,4.30
2023-04-06T00:48:45.531Z,4.10
2023-04-06T00:49:17.986Z,4.20
2023-04-06T00:49:50.279Z,4.20
2023-04-06T00:50:23.140Z,4.20
2023-04-06T00:50:55.353Z,4.20
2023-04-06T00:51:28.651Z,4.20
2023-04-06T00:52:01.063Z,4.20
2023-04-06T00:52:34.196Z,4.10
2023-04-06T00:53:06.055Z,4.10
2023-04-06T00:53:37.954Z,4.10
2023-04-06T00:54:09.908Z,4.10
2023-04-06T00:54:42.772Z,4.10
2023-04-06T00:55:14.630Z,4.20
2023-04-06T00:55:46.500Z,4.10
2023-04-06T00:56:18.389Z,4.10
2023-04-06T00:56:51.268Z,4.10
2023-04-06T00:57:23.160Z,4.00
2023-04-06T00:57:55.446Z,4.00
2023-04-06T00:58:28.380Z,4.00
2023-04-06T00:59:00.489Z,4.00
2023-04-06T00:59:32.785Z,4.00
2023-04-06T01:00:07.527Z,3.90
2023-04-06T01:00:39.415Z,3.90
2023-04-06T01:01:11.396Z,3.90
2023-04-06T01:01:44.310Z,3.90
2023-04-06T01:02:16.253Z,3.90
2023-04-06T01:02:49.154Z,3.90
2023-04-06T01:03:22.116Z,3.90
2023-04-06T01:03:54.946Z,3.90
2023-04-06T01:04:27.386Z,3.90
2023-04-06T01:05:00.411Z,3.90
2023-04-06T01:05:34.622Z,4.00
2023-04-06T01:06:06.900Z,3.90
2023-04-06T01:06:41.182Z,3.90
2023-04-06T01:07:13.054Z,3.90
2023-04-06T01:07:44.906Z,3.90
2023-04-06T01:08:16.773Z,3.90
2023-04-06T01:08:49.677Z,3.90
2023-04-06T01:09:22.573Z,3.90
2023-04-06T01:09:54.663Z,3.90
2023-04-06T01:10:28.465Z,4.00
2023-04-06T01:11:01.733Z,3.90
2023-04-06T01:11:33.608Z,3.90
2023-04-06T01:12:06.900Z,4.00
2023-04-06T01:12:39.749Z,3.90
2023-04-06T01:13:11.632Z,3.90
2023-04-06T01:13:43.510Z,3.90
2023-04-06T01:14:16.520Z,3.90
2023-04-06T01:14:48.740Z,3.90
2023-04-06T01:15:21.785Z,3.90
2023-04-06T01:15:54.762Z,4.00
2023-04-06T01:16:26.906Z,4.00
2023-04-06T01:17:01.260Z,4.00
2023-04-06T01:17:34.164Z,4.00
2023-04-06T01:18:07.870Z,4.00
2023-04-06T01:18:40.120Z,4.10
2023-04-06T01:19:13.863Z,4.00
2023-04-06T01:19:46.166Z,4.00
2023-04-06T01:20:18.139Z,4.00
2023-04-06T01:20:51.001Z,3.90
2023-04-06T01:21:23.352Z,3.90
2023-04-06T01:21:56.737Z,4.00
2023-04-06T01:22:30.964Z,4.00
2023-04-06T01:23:03.069Z,4.00
2023-04-06T01:23:34.972Z,4.00
2023-04-06T01:24:09.435Z,4.10
2023-04-06T01:24:41.324Z,3.90
2023-04-06T01:25:13.214Z,3.90
2023-04-06T01:25:46.333Z,3.90
2023-04-06T01:26:18.195Z,3.90
2023-04-06T01:26:50.078Z,3.90
2023-04-06T01:27:22.921Z,3.90
2023-04-06T01:27:54.808Z,3.90
2023-04-06T01:28:26.698Z,4.00
2023-04-06T01:28:58.628Z,3.90
2023-04-06T01:29:31.503Z,3.90
2023-04-06T01:30:04.393Z,4.00
2023-04-06T01:30:36.334Z,4.00
2023-04-06T01:31:11.164Z,4.00
2023-04-06T01:31:43.119Z,4.00
2023-04-06T01:32:15.120Z,4.00
2023-04-06T01:32:47.016Z,4.00
2023-04-06T01:33:19.921Z,4.00
2023-04-06T01:33:51.861Z,4.00
2023-04-06T01:34:23.749Z,4.00
2023-04-06T01:34:56.738Z,4.00
2023-04-06T01:35:29.136Z,4.00
2023-04-06T01:36:01.204Z,4.00
2023-04-06T01:36:34.280Z,4.00
2023-04-06T01:37:06.134Z,4.00
2023-04-06T01:37:39.387Z,4.00
2023-04-06T01:38:12.230Z,4.00
2023-04-06T01:38:44.121Z,4.00
2023-04-06T01:39:15.993Z,4.00
2023-04-06T01:39:47.959Z,4.00
2023-04-06T01:40:21.683Z,4.00
2023-04-06T01:40:53.653Z,4.00
2023-04-06T01:41:25.528Z,4.10
2023-04-06T01:41:58.368Z,4.10
2023-04-06T01:42:31.372Z,4.10
2023-04-06T01:43:03.391Z,4.00
2023-04-06T01:43:36.441Z,4.00
2023-04-06T01:44:08.287Z,4.00
2023-04-06T01:44:40.463Z,4.00
2023-04-06T01:45:12.307Z,4.00
2023-04-06T01:45:45.214Z,4.00
2023-04-06T01:46:17.360Z,4.00
2023-04-06T01:46:49.263Z,4.00
2023-04-06T01:47:21.218Z,4.00
2023-04-06T01:47:54.131Z,4.10
2023-04-06T01:48:26.545Z,4.00
2023-04-06T01:48:58.443Z,4.10
2023-04-06T01:49:31.280Z,4.10
2023-04-06T01:50:06.248Z,4.10
2023-04-06T01:50:38.123Z,4.10
2023-04-06T01:51:10.033Z,4.10
2023-04-06T01:51:42.873Z,4.10
2023-04-06T01:52:15.046Z,4.10
2023-04-06T01:52:48.286Z,4.10
2023-04-06T01:53:20.248Z,4.10
2023-04-06T01:53:53.157Z,4.10
2023-04-06T01:54:25.122Z,4.10
2023-04-06T01:54:57.005Z,4.00
2023-04-06T01:55:28.878Z,4.00
2023-04-06T01:56:01.763Z,4.00
2023-04-06T01:56:33.624Z,4.00
2023-04-06T01:57:05.933Z,4.00
2023-04-06T01:57:38.763Z,4.00
2023-04-06T01:58:11.082Z,4.00
2023-04-06T01:58:43.141Z,4.00
2023-04-06T01:59:16.170Z,4.00
2023-04-06T01:59:48.182Z,4.00
2023-04-06T02:00:20.328Z,4.00
2023-04-06T02:00:53.240Z,4.00
2023-04-06T02:01:25.488Z,4.00
2023-04-06T02:01:57.463Z,3.90
2023-04-06T02:02:30.702Z,4.00
2023-04-06T02:03:02.958Z,4.00
2023-04-06T02:03:34.932Z,4.00
2023-04-06T02:04:07.756Z,4.00
2023-04-06T02:04:39.613Z,3.90
2023-04-06T02:05:11.536Z,3.90
2023-04-06T02:05:43.390Z,3.90
2023-04-06T02:06:16.246Z,3.90
2023-04-06T02:06:48.171Z,3.90
2023-04-06T02:07:20.150Z,3.90
2023-04-06T02:07:53.516Z,3.90
2023-04-06T02:08:26.330Z,4.00
2023-04-06T02:08:58.220Z,3.90
2023-04-06T02:09:30.416Z,3.90
2023-04-06T02:10:04.199Z,3.90
2023-04-06T02:10:36.225Z,3.90
2023-04-06T02:11:08.120Z,3.90
2023-04-06T02:11:40.994Z,4.00
2023-04-06T02:12:12.862Z,4.00
2023-04-06T02:12:44.736Z,4.00
2023-04-06T02:13:17.559Z,4.00
2023-04-06T02:13:49.415Z,4.00
2023-04-06T02:14:21.436Z,4.00
2023-04-06T02:14:54.292Z,4.00
2023-04-06T02:15:26.342Z,4.00
2023-04-06T02:15:58.342Z,4.00
2023-04-06T02:16:31.460Z,4.00
2023-04-06T02:17:03.538Z,4.00
2023-04-06T02:17:35.820Z,4.00
2023-04-06T02:18:08.840Z,4.00
2023-04-06T02:18:40.897Z,4.00
2023-04-06T02:19:12.740Z,4.00
2023-04-06T02:19:45.612Z,3.90
2023-04-06T02:20:17.600Z,4.00
2023-04-06T02:20:49.510Z,4.00
2023-04-06T02:21:22.366Z,3.90
2023-04-06T02:21:54.204Z,3.90
2023-04-06T02:22:26.058Z,4.00
2023-04-06T02:23:01.920Z,4.00
2023-04-06T02:23:33.869Z,4.00
2023-04-06T02:24:06.327Z,4.00
2023-04-06T02:24:39.185Z,4.00
2023-04-06T02:25:11.136Z,4.00
2023-04-06T02:25:43.134Z,4.00
2023-04-06T02:26:16.014Z,4.00
2023-04-06T02:26:47.859Z,4.00
2023-04-06T02:27:19.714Z,4.00
2023-04-06T02:27:52.612Z,4.00
2023-04-06T02:28:24.482Z,4.00
2023-04-06T02:28:56.342Z,3.90
2023-04-06T02:29:28.222Z,3.90
2023-04-06T02:30:01.090Z,3.90
2023-04-06T02:30:34.065Z,3.90
2023-04-06T02:31:05.937Z,3.90
2023-04-06T02:31:38.852Z,3.90
2023-04-06T02:32:10.832Z,3.90
2023-04-06T02:32:42.743Z,3.90
2023-04-06T02:33:15.640Z,4.00
2023-04-06T02:33:47.493Z,4.00
2023-04-06T02:34:19.395Z,4.00
2023-04-06T02:34:52.258Z,4.00
2023-04-06T02:35:26.632Z,4.00
2023-04-06T02:35:58.540Z,4.00
2023-04-06T02:36:31.688Z,4.00
2023-04-06T02:37:03.597Z,3.90
2023-04-06T02:37:35.498Z,3.90
2023-04-06T02:38:09.736Z,3.90
2023-04-06T02:38:41.592Z,3.90
2023-04-06T02:39:13.925Z,3.90
2023-04-06T02:39:46.988Z,3.90
2023-04-06T02:40:18.844Z,3.90
2023-04-06T02:40:50.712Z,3.80
2023-04-06T02:41:23.535Z,3.90
2023-04-06T02:41:56.935Z,3.90
2023-04-06T02:42:28.821Z,3.90
2023-04-06T02:43:01.697Z,3.80
2023-04-06T02:43:34.103Z,3.90
2023-04-06T02:44:07.975Z,3.80
2023-04-06T02:44:39.857Z,3.80
2023-04-06T02:45:12.758Z,3.80
2023-04-06T02:45:44.679Z,3.80
2023-04-06T02:46:16.607Z,3.80
2023-04-06T02:46:49.542Z,3.80
2023-04-06T02:47:21.480Z,3.80
2023-04-06T02:47:53.396Z,3.80
2023-04-06T02:48:26.302Z,3.80
2023-04-06T02:49:01.140Z,3.80
2023-04-06T02:49:33.029Z,3.80
2023-04-06T02:50:07.079Z,3.80
2023-04-06T02:50:38.934Z,3.90
2023-04-06T02:51:10.909Z,3.80
2023-04-06T02:51:42.819Z,3.80
2023-04-06T02:52:15.893Z,3.80
2023-04-06T02:52:47.783Z,3.80
2023-04-06T02:53:21.263Z,3.80
2023-04-06T02:53:54.258Z,3.80
2023-04-06T02:54:26.119Z,3.80
2023-04-06T02:54:58.044Z,3.80
2023-04-06T02:55:31.040Z,3.80
2023-04-06T02:56:02.916Z,3.80
2023-04-06T02:56:34.791Z,3.90
2023-04-06T02:57:07.696Z,3.90
2023-04-06T02:57:39.552Z,3.90
2023-04-06T02:58:11.434Z,3.90
2023-04-06T02:58:44.281Z,3.90
2023-04-06T02:59:16.274Z,4.00
2023-04-06T02:59:48.178Z,3.90
2023-04-06T03:00:21.779Z,3.90
2023-04-06T03:00:53.718Z,3.90
2023-04-06T03:01:25.810Z,3.90
2023-04-06T03:01:57.734Z,3.80
2023-04-06T03:02:30.646Z,3.80
2023-04-06T03:03:02.781Z,3.80
2023-04-06T03:03:34.755Z,3.80
2023-04-06T03:04:07.729Z,3.80
2023-04-06T03:04:39.634Z,3.80
2023-04-06T03:05:11.489Z,3.80
2023-04-06T03:05:44.334Z,3.80
2023-04-06T03:06:16.230Z,3.80
2023-04-06T03:06:48.100Z,3.80
2023-04-06T03:07:20.945Z,3.80
2023-04-06T03:07:52.849Z,3.80
2023-04-06T03:08:26.090Z,3.80
2023-04-06T03:08:58.992Z,3.80
2023-04-06T03:09:30.848Z,3.80
2023-04-06T03:10:02.728Z,4.00
2023-04-06T03:10:35.862Z,3.90
2023-04-06T03:11:07.769Z,3.90
2023-04-06T03:11:39.638Z,3.90
2023-04-06T03:12:12.657Z,3.90
2023-04-06T03:12:44.772Z,3.90
2023-04-06T03:13:16.641Z,3.80
2023-04-06T03:13:49.454Z,3.80
2023-04-06T03:14:22.690Z,3.80
2023-04-06T03:14:54.569Z,3.80
2023-04-06T03:15:27.419Z,3.80
2023-04-06T03:15:59.328Z,3.70
2023-04-06T03:16:31.236Z,3.70
2023-04-06T03:17:04.151Z,3.70
2023-04-06T03:17:36.172Z,3.70
2023-04-06T03:18:08.141Z,3.80
2023-04-06T03:18:41.049Z,3.80
2023-04-06T03:19:12.887Z,3.80
2023-04-06T03:19:44.811Z,3.80
2023-04-06T03:20:17.725Z,3.80
2023-04-06T03:20:49.625Z,3.80
2023-04-06T03:21:21.518Z,3.70
2023-04-06T03:21:54.410Z,3.70
2023-04-06T03:22:26.319Z,3.70
2023-04-06T03:22:58.249Z,3.70
2023-04-06T03:23:32.414Z,3.70
2023-04-06T03:24:05.010Z,3.70
2023-04-06T03:24:36.904Z,3.70
2023-04-06T03:25:10.002Z,3.70
2023-04-06T03:25:41.850Z,3.80
2023-04-06T03:26:13.684Z,3.70
2023-04-06T03:26:46.512Z,3.80
2023-04-06T03:27:18.374Z,3.80
2023-04-06T03:27:50.496Z,3.80
2023-04-06T03:28:23.337Z,3.80
2023-04-06T03:28:55.259Z,3.80
2023-04-06T03:29:27.999Z,3.80
2023-04-06T03:30:01.014Z,3.70
2023-04-06T03:30:32.894Z,3.70
2023-04-06T03:31:04.884Z,3.70
2023-04-06T03:31:37.749Z,3.70
2023-04-06T03:32:11.063Z,3.60
2023-04-06T03:32:43.133Z,3.60
2023-04-06T03:33:14.990Z,3.60
2023-04-06T03:33:47.819Z,3.60
2023-04-06T03:34:19.702Z,3.70
2023-04-06T03:34:51.555Z,3.70
2023-04-06T03:35:24.445Z,3.70
2023-04-06T03:35:56.451Z,3.70
2023-04-06T03:36:29.296Z,3.60
2023-04-06T03:37:09.786Z,3.70
2023-04-06T03:37:42.751Z,3.70
2023-04-06T03:38:15.565Z,3.60
2023-04-06T03:38:48.766Z,3.70
2023-04-06T03:39:20.749Z,3.70
2023-04-06T03:39:54.398Z,3.70
2023-04-06T03:40:26.277Z,3.70
2023-04-06T03:40:58.192Z,3.70
2023-04-06T03:41:31.106Z,3.70
2023-04-06T03:42:03.112Z,3.70
2023-04-06T03:42:34.975Z,3.70
2023-04-06T03:43:06.900Z,3.70
2023-04-06T03:43:39.759Z,3.70
2023-04-06T03:44:11.656Z,3.70
2023-04-06T03:44:43.489Z,3.70
2023-04-06T03:45:16.482Z,3.70
2023-04-06T03:45:48.360Z,3.80
2023-04-06T03:46:20.318Z,3.80
2023-04-06T03:46:53.325Z,3.80
2023-04-06T03:47:25.404Z,3.80
2023-04-06T03:47:57.317Z,3.80
2023-04-06T03:48:29.209Z,3.80
2023-04-06T03:49:02.040Z,3.80
2023-04-06T03:49:33.905Z,3.80
2023-04-06T03:50:07.072Z,3.80
2023-04-06T03:50:39.892Z,3.80
2023-04-06T03:51:11.739Z,3.80
2023-04-06T03:51:43.587Z,3.80
2023-04-06T03:52:16.442Z,3.80
2023-04-06T03:52:48.322Z,3.80
2023-04-06T03:53:20.250Z,3.80
2023-04-06T03:53:54.436Z,3.80
2023-04-06T03:54:26.304Z,3.80
2023-04-06T03:54:58.174Z,3.80
2023-04-06T03:55:31.082Z,3.80
2023-04-06T03:56:04.725Z,3.80
2023-04-06T03:56:36.900Z,3.80
2023-04-06T03:57:09.817Z,3.80
2023-04-06T03:57:42.386Z,3.80
2023-04-06T03:58:14.250Z,3.80
2023-04-06T03:58:50.344Z,3.70
2023-04-06T03:59:22.375Z,3.70
2023-04-06T03:59:54.251Z,3.60
2023-04-06T04:00:27.246Z,3.70
2023-04-06T04:00:59.154Z,3.70
2023-04-06T04:01:31.299Z,3.70
2023-04-06T04:02:03.196Z,3.70
2023-04-06T04:02:36.220Z,3.60
2023-04-06T04:03:08.197Z,3.60
2023-04-06T04:03:40.311Z,3.60
2023-04-06T04:04:13.735Z,3.60
2023-04-06T04:04:45.716Z,3.60
2023-04-06T04:05:17.702Z,3.60
2023-04-06T04:05:50.637Z,3.60
2023-04-06T04:06:22.666Z,3.60
2023-04-06T04:06:54.586Z,3.60
2023-04-06T04:07:27.437Z,3.60
2023-04-06T04:07:59.299Z,3.60
2023-04-06T04:08:31.196Z,3.70
2023-04-06T04:09:05.510Z,3.60
2023-04-06T04:09:37.893Z,3.60
2023-04-06T04:10:10.575Z,3.60
2023-04-06T04:10:42.451Z,3.60
2023-04-06T04:11:16.661Z,3.60
2023-04-06T04:11:48.520Z,3.60
2023-04-06T04:12:20.406Z,3.60
2023-04-06T04:12:53.231Z,3.60
2023-04-06T04:13:25.112Z,3.60
2023-04-06T04:13:57.024Z,3.60
2023-04-06T04:14:29.886Z,3.60
2023-04-06T04:15:01.738Z,3.60
2023-04-06T04:15:33.584Z,3.60
2023-04-06T04:16:06.885Z,3.60
2023-04-06T04:16:40.304Z,3.60
2023-04-06T04:17:12.313Z,3.60
2023-04-06T04:17:47.710Z,3.60
2023-04-06T04:18:19.582Z,3.60
2023-04-06T04:18:51.480Z,3.60
2023-04-06T04:19:24.386Z,3.60
2023-04-06T04:19:56.298Z,3.50
2023-04-06T04:20:29.387Z,3.60
2023-04-06T04:21:02.216Z,3.50
2023-04-06T04:21:34.140Z,3.50
2023-04-06T04:22:06.579Z,3.50
2023-04-06T04:22:39.424Z,3.50
2023-04-06T04:23:11.403Z,3.50
2023-04-06T04:23:43.348Z,3.50
2023-04-06T04:24:17.554Z,3.40
2023-04-06T04:24:49.864Z,3.40
2023-04-06T04:25:21.737Z,3.40
2023-04-06T04:25:53.586Z,3.50
2023-04-06T04:26:26.619Z,3.50
2023-04-06T04:26:58.472Z,3.50
2023-04-06T04:27:30.766Z,3.50
2023-04-06T04:28:03.821Z,3.50
2023-04-06T04:28:35.692Z,3.50
2023-04-06T04:29:08.093Z,3.50
2023-04-06T04:29:41.173Z,3.50
2023-04-06T04:30:14.256Z,3.50
2023-04-06T04:30:46.700Z,3.50
2023-04-06T04:31:20.912Z,3.60
2023-04-06T04:31:53.245Z,3.60
2023-04-06T04:32:28.141Z,3.60
2023-04-06T04:33:01.091Z,3.60
2023-04-06T04:33:32.982Z,3.50
2023-04-06T04:34:04.991Z,3.50
2023-04-06T04:34:40.977Z,3.50
2023-04-06T04:35:14.337Z,3.60
2023-04-06T04:35:46.244Z,3.60
2023-04-06T04:36:19.114Z,3.60
2023-04-06T04:36:50.982Z,3.60
2023-04-06T04:37:22.932Z,3.60
2023-04-06T04:37:55.893Z,3.70
2023-04-06T04:38:27.936Z,3.70
2023-04-06T04:39:01.972Z,3.70
2023-04-06T04:39:36.170Z,3.70
2023-04-06T04:40:09.274Z,3.70
2023-04-06T04:40:41.211Z,3.70
2023-04-06T04:41:14.021Z,3.80
2023-04-06T04:41:46.369Z,3.80
2023-04-06T04:42:18.309Z,3.80
2023-04-06T04:42:51.820Z,3.80
2023-04-06T04:43:23.772Z,3.80
2023-04-06T04:43:56.012Z,3.80
2023-04-06T04:44:28.951Z,3.80
2023-04-06T04:45:00.964Z,3.80
2023-04-06T04:45:32.886Z,3.80
2023-04-06T04:46:06.543Z,3.80
2023-04-06T04:46:38.454Z,3.80
2023-04-06T04:47:10.346Z,3.80
2023-04-06T04:47:43.199Z,3.80
2023-04-06T04:48:15.206Z,3.80
2023-04-06T04:48:47.065Z,3.80
2023-04-06T04:49:19.009Z,3.80
2023-04-06T04:49:51.858Z,3.80
2023-04-06T04:50:23.706Z,3.80
2023-04-06T04:50:56.166Z,3.80
2023-04-06T04:51:29.967Z,3.70
2023-04-06T04:52:01.960Z,3.80
2023-04-06T04:52:33.836Z,3.70
2023-04-06T04:53:06.976Z,3.70
2023-04-06T04:53:38.859Z,3.70
2023-04-06T04:54:10.777Z,3.70
2023-04-06T04:54:43.998Z,3.70
2023-04-06T04:55:17.090Z,3.70
2023-04-06T04:55:48.970Z,3.70
2023-04-06T04:56:20.846Z,3.70
2023-04-06T04:56:52.845Z,3.70
2023-04-06T04:57:25.680Z,3.70
2023-04-06T04:57:57.568Z,3.70
2023-04-06T04:58:29.431Z,3.70
2023-04-06T04:59:01.338Z,3.70
2023-04-06T04:59:34.410Z,3.60
2023-04-06T05:00:07.893Z,3.60
2023-04-06T05:00:39.762Z,3.60
2023-04-06T05:01:12.630Z,3.60
2023-04-06T05:01:54.382Z,3.60
2023-04-06T05:02:27.239Z,3.60
2023-04-06T05:03:00.433Z,3.50
2023-04-06T05:03:34.034Z,3.50
2023-04-06T05:04:06.339Z,3.50
2023-04-06T05:04:39.180Z,3.50
2023-04-06T05:05:11.074Z,3.50
2023-04-06T05:05:42.967Z,3.50
2023-04-06T05:06:15.904Z,3.50
2023-04-06T05:06:47.736Z,3.60
2023-04-06T05:07:19.677Z,3.60
2023-04-06T05:07:52.600Z,3.60
2023-04-06T05:08:24.583Z,3.60
2023-04-06T05:08:56.729Z,3.70
2023-04-06T05:09:31.648Z,3.60
2023-04-06T05:10:05.766Z,3.60
2023-04-06T05:10:37.632Z,3.50
2023-04-06T05:11:10.948Z,3.50
2023-04-06T05:11:42.907Z,3.50
2023-04-06T05:12:14.828Z,3.50
2023-04-06T05:12:47.738Z,3.50
2023-04-06T05:13:19.649Z,3.60
2023-04-06T05:13:51.649Z,3.60
2023-04-06T05:14:24.547Z,3.60
2023-04-06T05:14:56.436Z,3.60
2023-04-06T05:15:28.862Z,3.60
2023-04-06T05:16:01.789Z,3.60
2023-04-06T05:16:35.164Z,3.50
2023-04-06T05:17:07.084Z,3.60
2023-04-06T05:17:40.039Z,3.60
2023-04-06T05:18:12.209Z,3.60
2023-04-06T05:18:44.212Z,3.60
2023-04-06T05:19:17.262Z,3.60
2023-04-06T05:19:49.549Z,3.60
2023-04-06T05:20:21.436Z,3.60
2023-04-06T05:20:54.383Z,3.60
2023-04-06T05:21:27.523Z,3.50
2023-04-06T05:21:59.379Z,3.50
2023-04-06T05:22:32.191Z,3.50
2023-04-06T05:23:04.098Z,3.50
2023-04-06T05:23:35.976Z,3.60
2023-04-06T05:24:09.456Z,3.60
2023-04-06T05:24:41.392Z,3.60
2023-04-06T05:25:14.677Z,3.60
2023-04-06T05:25:47.611Z,3.60
2023-04-06T05:26:19.518Z,3.70
2023-04-06T05:26:51.433Z,3.70
2023-04-06T05:27:24.300Z,3.70
2023-04-06T05:27:56.316Z,3.70
2023-04-06T05:28:28.180Z,3.70
2023-04-06T05:29:01.071Z,3.70
2023-04-06T05:29:33.017Z,3.80
2023-04-06T05:30:06.460Z,3.80
2023-04-06T05:30:39.345Z,3.80
2023-04-06T05:31:11.291Z,3.80
2023-04-06T05:31:43.257Z,3.80
2023-04-06T05:32:16.457Z,3.80
2023-04-06T05:32:48.850Z,3.80
2023-04-06T05:33:21.128Z,3.90
2023-04-06T05:33:54.093Z,3.90
2023-04-06T05:34:26.001Z,3.90
2023-04-06T05:34:58.887Z,3.90
2023-04-06T05:35:30.794Z,3.90
2023-04-06T05:36:02.810Z,3.90
2023-04-06T05:36:35.989Z,3.90
2023-04-06T05:37:07.921Z,3.90
2023-04-06T05:37:40.140Z,4.00
2023-04-06T05:38:12.976Z,3.90
2023-04-06T05:38:44.890Z,4.00
2023-04-06T05:39:17.000Z,4.00
2023-04-06T05:39:49.867Z,4.00
2023-04-06T05:40:23.064Z,4.00
2023-04-06T05:40:56.673Z,4.10
2023-04-06T05:41:28.563Z,4.10
2023-04-06T05:42:06.155Z,4.00
2023-04-06T05:42:39.016Z,4.00
2023-04-06T05:43:10.866Z,4.00
2023-04-06T05:43:43.684Z,4.00
2023-04-06T05:44:15.551Z,4.00
2023-04-06T05:44:48.393Z,4.10
2023-04-06T05:45:21.515Z,4.10
2023-04-06T05:45:53.368Z,4.10
2023-04-06T05:46:25.342Z,4.10
2023-04-06T05:46:58.320Z,4.10
2023-04-06T05:47:30.228Z,4.20
2023-04-06T05:48:02.463Z,4.20
2023-04-06T05:48:34.390Z,4.20
2023-04-06T05:49:07.327Z,4.20
2023-04-06T05:49:39.478Z,4.30
2023-04-06T05:50:11.809Z,4.30
2023-04-06T05:50:44.702Z,4.30
2023-04-06T05:51:16.638Z,4.30
2023-04-06T05:51:48.499Z,4.40
2023-04-06T05:52:21.329Z,4.40
2023-04-06T05:52:53.172Z,4.30
2023-04-06T05:53:27.080Z,4.30
2023-04-06T05:54:00.339Z,4.30
2023-04-06T05:54:32.239Z,4.30
2023-04-06T05:55:04.906Z,4.30
2023-04-06T05:55:39.113Z,4.20
2023-04-06T05:56:11.003Z,4.30
2023-04-06T05:56:42.959Z,4.30
2023-04-06T05:57:17.309Z,4.30
2023-04-06T05:57:49.169Z,4.30
2023-04-06T05:58:21.206Z,4.30
2023-04-06T05:58:54.231Z,4.30
2023-04-06T05:59:26.197Z,4.30
2023-04-06T05:59:58.078Z,4.30
2023-04-06T06:00:30.955Z,4.30
2023-04-06T06:01:03.758Z,4.20
2023-04-06T06:01:36.983Z,4.20
2023-04-06T06:02:08.882Z,4.20
2023-04-06T06:02:43.046Z,4.20
2023-04-06T06:03:16.178Z,4.30
2023-04-06T06:03:48.100Z,4.30
2023-04-06T06:04:19.994Z,4.30
2023-04-06T06:04:52.907Z,4.30
2023-04-06T06:05:24.983Z,4.30
2023-04-06T06:06:01.308Z,4.50
2023-04-06T06:06:34.196Z,4.30
2023-04-06T06:07:06.365Z,4.30
2023-04-06T06:07:38.371Z,4.30
2023-04-06T06:08:11.240Z,4.30
2023-04-06T06:08:43.130Z,4.30
2023-04-06T06:09:15.462Z,4.40
2023-04-06T06:09:48.351Z,4.40
2023-04-06T06:10:20.295Z,4.30
2023-04-06T06:10:53.523Z,4.30
2023-04-06T06:11:26.390Z,4.30
2023-04-06T06:11:58.277Z,4.30
2023-04-06T06:12:30.180Z,4.30
2023-04-06T06:13:03.046Z,4.30
2023-04-06T06:13:34.926Z,4.30
2023-04-06T06:14:06.833Z,4.20
2023-04-06T06:14:39.699Z,4.30
2023-04-06T06:15:12.576Z,4.20
2023-04-06T06:15:44.460Z,4.30
2023-04-06T06:16:19.342Z,4.20
2023-04-06T06:16:51.266Z,4.30
2023-04-06T06:17:24.261Z,4.30
2023-04-06T06:17:56.240Z,4.30
2023-04-06T06:18:28.179Z,4.30
2023-04-06T06:19:01.030Z,4.30
2023-04-06T06:19:32.959Z,4.30
2023-04-06T06:20:06.521Z,4.30
2023-04-06T06:20:39.420Z,4.30
2023-04-06T06:21:13.157Z,4.30
2023-04-06T06:21:45.246Z,4.30
2023-04-06T06:22:18.091Z,4.30
2023-04-06T06:22:49.950Z,4.40
2023-04-06T06:23:22.786Z,4.30
2023-04-06T06:23:55.505Z,4.30
2023-04-06T06:24:29.013Z,4.30
2023-04-06T06:25:03.191Z,4.30
2023-04-06T06:25:35.067Z,4.30
2023-04-06T06:26:08.272Z,4.30
2023-04-06T06:26:41.147Z,4.30
2023-04-06T06:27:13.054Z,4.30
2023-04-06T06:27:45.010Z,4.30
2023-04-06T06:28:18.183Z,4.40
2023-04-06T06:28:50.259Z,4.40
2023-04-06T06:29:22.238Z,4.50
2023-04-06T06:29:55.096Z,4.60
2023-04-06T06:30:27.110Z,4.60
2023-04-06T06:31:00.130Z,4.60
2023-04-06T06:31:32.042Z,4.70
2023-04-06T06:32:04.107Z,4.60
2023-04-06T06:32:37.082Z,4.60
2023-04-06T06:33:09.053Z,4.70
2023-04-06T06:33:41.003Z,4.80
2023-04-06T06:34:14.646Z,4.70
2023-04-06T06:34:46.547Z,4.80
2023-04-06T06:35:18.662Z,4.80
2023-04-06T06:35:52.142Z,4.90
2023-04-06T06:36:24.230Z,4.80
2023-04-06T06:36:56.331Z,4.80
2023-04-06T06:37:31.106Z,4.80
2023-04-06T06:38:03.685Z,4.90
2023-04-06T06:38:36.618Z,4.80
2023-04-06T06:39:08.805Z,4.90
2023-04-06T06:39:41.098Z,4.90
2023-04-06T06:40:16.915Z,4.90
2023-04-06T06:40:49.015Z,4.90
2023-04-06T06:41:23.224Z,4.90
2023-04-06T06:41:55.858Z,4.90
2023-04-06T06:42:28.717Z,4.90
2023-04-06T06:43:00.719Z,4.90
2023-04-06T06:43:32.592Z,4.90
2023-04-06T06:44:06.536Z,4.90
2023-04-06T06:44:38.646Z,4.90
2023-04-06T06:45:11.229Z,4.80
2023-04-06T06:45:44.204Z,4.80
2023-04-06T06:46:16.346Z,4.90
2023-04-06T06:46:48.345Z,4.90
2023-04-06T06:47:21.255Z,4.90
2023-04-06T06:47:55.104Z,5.00
2023-04-06T06:48:28.692Z,5.00
2023-04-06T06:49:00.866Z,5.00
2023-04-06T06:49:32.756Z,5.00
2023-04-06T06:50:07.072Z,5.00
2023-04-06T06:50:38.981Z,5.00
2023-04-06T06:51:12.632Z,5.00
2023-04-06T06:51:44.547Z,5.00
2023-04-06T06:52:16.430Z,5.00
2023-04-06T06:52:49.317Z,5.10
2023-04-06T06:53:21.216Z,5.10
2023-04-06T06:53:54.133Z,5.10
2023-04-06T06:54:26.034Z,5.20
2023-04-06T06:54:58.068Z,5.20
2023-04-06T06:55:30.919Z,5.20
2023-04-06T06:56:02.920Z,5.20
2023-04-06T06:56:37.923Z,5.20
2023-04-06T06:57:11.053Z,5.30
2023-04-06T06:57:43.308Z,5.30
2023-04-06T06:58:15.403Z,5.30
2023-04-06T06:58:48.603Z,5.40
2023-04-06T06:59:22.280Z,5.40
2023-04-06T06:59:55.158Z,5.50
2023-04-06T07:00:27.051Z,5.50
2023-04-06T07:01:00.313Z,5.50
2023-04-06T07:01:33.012Z,5.60
2023-04-06T07:02:04.928Z,5.60
2023-04-06T07:02:37.967Z,5.70
2023-04-06T07:03:09.938Z,5.70
2023-04-06T07:03:41.816Z,5.70
2023-04-06T07:04:14.725Z,5.80
2023-04-06T07:04:49.686Z,5.80
2023-04-06T07:05:28.267Z,5.80
2023-04-06T07:06:01.965Z,5.80
2023-04-06T07:06:33.905Z,5.90
2023-04-06T07:07:05.817Z,5.90
2023-04-06T07:07:38.696Z,5.90
2023-04-06T07:08:10.676Z,6.00
2023-04-06T07:08:42.547Z,6.00
2023-04-06T07:09:15.422Z,6.00
2023-04-06T07:09:47.334Z,6.10
2023-04-06T07:10:19.234Z,6.10
2023-04-06T07:10:53.857Z,6.30
2023-04-06T07:11:25.758Z,6.40
2023-04-06T07:11:58.968Z,6.50
2023-04-06T07:12:31.815Z,6.70
2023-04-06T07:13:04.141Z,6.60
2023-04-06T07:13:36.093Z,6.60